sensor_id;sensor_type;location;lat;lon;timestamp;P1;durP1;ratioP1;P2;durP2;ratioP2
20468;SDS011;10393;52.460;13.322;2023-05-07T00:01:38;8.13;;;4.23;;
20468;SDS011;10393;52.460;13.322;2023-05-07T00:03:20;14.90;;;5.97;;
20468;SDS011;10393;52.460;13.322;2023-05-07T00:05:01;10.37;;;6.13;;
20468;SDS011;10393;52.460;13.322;2023-05-07T00:06:42;8.63;;;4.67;;
20468;SDS011;10393;52.460;13.322;2023-05-07T00:08:24;9.80;;;6.13;;
20468;SDS011;10393;52.460;13.322;2023-05-07T00:10:05;9.43;;;3.63;;
20468;SDS011;10393;52.460;13.322;2023-05-07T00:11:46;7.57;;;5.00;;
20468;SDS011;10393;52.460;13.322;2023-05-07T00:13:28;8.90;;;5.23;;
20468;SDS011;10393;52.460;13.322;2023-05-07T00:15:15;13.47;;;5.20;;
20468;SDS011;10393;52.460;13.322;2023-05-07T00:16:56;6.63;;;4.53;;
20468;SDS011;10393;52.460;13.322;2023-05-07T00:18:37;9.57;;;4.67;;
20468;SDS011;10393;52.460;13.322;2023-05-07T00:20:20;8.13;;;5.37;;
20468;SDS011;10393;52.460;13.322;2023-05-07T00:22:01;7.03;;;4.37;;
20468;SDS011;10393;52.460;13.322;2023-05-07T00:23:45;9.53;;;5.10;;
20468;SDS011;10393;52.460;13.322;2023-05-07T00:25:26;7.10;;;4.17;;
20468;SDS011;10393;52.460;13.322;2023-05-07T00:27:13;7.13;;;4.20;;
20468;SDS011;10393;52.460;13.322;2023-05-07T00:28:54;6.53;;;2.57;;
20468;SDS011;10393;52.460;13.322;2023-05-07T00:30:35;8.27;;;5.30;;
20468;SDS011;10393;52.460;13.322;2023-05-07T00:32:17;7.83;;;4.53;;
20468;SDS011;10393;52.460;13.322;2023-05-07T00:33:58;6.63;;;4.33;;
20468;SDS011;10393;52.460;13.322;2023-05-07T00:35:39;10.30;;;5.23;;
20468;SDS011;10393;52.460;13.322;2023-05-07T00:37:21;7.17;;;4.27;;
20468;SDS011;10393;52.460;13.322;2023-05-07T00:39:02;9.63;;;4.60;;
20468;SDS011;10393;52.460;13.322;2023-05-07T00:40:43;6.40;;;3.60;;
20468;SDS011;10393;52.460;13.322;2023-05-07T00:42:25;7.30;;;4.23;;
20468;SDS011;10393;52.460;13.322;2023-05-07T00:44:07;5.77;;;4.40;;
20468;SDS011;10393;52.460;13.322;2023-05-07T00:45:51;10.77;;;5.07;;
20468;SDS011;10393;52.460;13.322;2023-05-07T00:47:32;7.13;;;2.90;;
20468;SDS011;10393;52.460;13.322;2023-05-07T00:49:14;4.07;;;3.27;;
20468;SDS011;10393;52.460;13.322;2023-05-07T00:50:55;8.67;;;4.23;;
20468;SDS011;10393;52.460;13.322;2023-05-07T00:52:37;9.77;;;4.33;;
20468;SDS011;10393;52.460;13.322;2023-05-07T00:54:22;7.47;;;5.17;;
20468;SDS011;10393;52.460;13.322;2023-05-07T00:56:03;6.87;;;4.60;;
20468;SDS011;10393;52.460;13.322;2023-05-07T00:57:46;9.33;;;3.90;;
20468;SDS011;10393;52.460;13.322;2023-05-07T00:59:27;10.03;;;4.97;;
20468;SDS011;10393;52.460;13.322;2023-05-07T01:01:09;7.17;;;3.97;;
20468;SDS011;10393;52.460;13.322;2023-05-07T01:02:50;5.40;;;4.23;;
20468;SDS011;10393;52.460;13.322;2023-05-07T01:04:32;9.30;;;4.17;;
20468;SDS011;10393;52.460;13.322;2023-05-07T01:06:13;10.13;;;4.87;;
20468;SDS011;10393;52.460;13.322;2023-05-07T01:07:57;4.63;;;3.10;;
20468;SDS011;10393;52.460;13.322;2023-05-07T01:09:41;7.37;;;4.53;;
20468;SDS011;10393;52.460;13.322;2023-05-07T01:11:22;5.77;;;4.17;;
20468;SDS011;10393;52.460;13.322;2023-05-07T01:13:03;7.87;;;2.87;;
20468;SDS011;10393;52.460;13.322;2023-05-07T01:14:46;7.17;;;4.47;;
20468;SDS011;10393;52.460;13.322;2023-05-07T01:16:29;8.20;;;4.43;;
20468;SDS011;10393;52.460;13.322;2023-05-07T01:18:10;6.57;;;4.43;;
20468;SDS011;10393;52.460;13.322;2023-05-07T01:19:52;6.50;;;4.27;;
20468;SDS011;10393;52.460;13.322;2023-05-07T01:21:33;11.97;;;4.30;;
20468;SDS011;10393;52.460;13.322;2023-05-07T01:23:17;9.40;;;5.03;;
20468;SDS011;10393;52.460;13.322;2023-05-07T01:24:59;4.93;;;3.70;;
20468;SDS011;10393;52.460;13.322;2023-05-07T01:26:45;9.10;;;4.80;;
20468;SDS011;10393;52.460;13.322;2023-05-07T01:28:29;8.57;;;5.33;;
20468;SDS011;10393;52.460;13.322;2023-05-07T01:30:13;9.03;;;4.20;;
20468;SDS011;10393;52.460;13.322;2023-05-07T01:31:56;6.70;;;4.80;;
20468;SDS011;10393;52.460;13.322;2023-05-07T01:33:38;6.67;;;5.00;;
20468;SDS011;10393;52.460;13.322;2023-05-07T01:35:29;14.37;;;4.83;;
20468;SDS011;10393;52.460;13.322;2023-05-07T01:37:10;8.47;;;5.07;;
20468;SDS011;10393;52.460;13.322;2023-05-07T01:38:52;7.47;;;4.77;;
20468;SDS011;10393;52.460;13.322;2023-05-07T01:40:33;7.37;;;3.87;;
20468;SDS011;10393;52.460;13.322;2023-05-07T01:42:15;8.40;;;4.20;;
20468;SDS011;10393;52.460;13.322;2023-05-07T01:43:56;2.47;;;2.00;;
20468;SDS011;10393;52.460;13.322;2023-05-07T01:45:42;8.10;;;4.55;;
20468;SDS011;10393;52.460;13.322;2023-05-07T01:47:28;7.30;;;5.03;;
20468;SDS011;10393;52.460;13.322;2023-05-07T01:49:14;6.80;;;4.50;;
20468;SDS011;10393;52.460;13.322;2023-05-07T01:50:55;5.43;;;3.97;;
20468;SDS011;10393;52.460;13.322;2023-05-07T01:52:37;4.10;;;3.17;;
20468;SDS011;10393;52.460;13.322;2023-05-07T01:54:25;7.53;;;4.90;;
20468;SDS011;10393;52.460;13.322;2023-05-07T01:56:09;6.40;;;3.53;;
20468;SDS011;10393;52.460;13.322;2023-05-07T01:58:08;11.30;;;4.53;;
20468;SDS011;10393;52.460;13.322;2023-05-07T01:59:53;6.20;;;4.30;;
20468;SDS011;10393;52.460;13.322;2023-05-07T02:01:35;8.60;;;4.60;;
20468;SDS011;10393;52.460;13.322;2023-05-07T02:03:16;8.63;;;4.57;;
20468;SDS011;10393;52.460;13.322;2023-05-07T02:05:06;9.77;;;4.63;;
20468;SDS011;10393;52.460;13.322;2023-05-07T02:06:48;8.60;;;4.00;;
20468;SDS011;10393;52.460;13.322;2023-05-07T02:08:31;6.33;;;3.47;;
20468;SDS011;10393;52.460;13.322;2023-05-07T02:10:12;7.80;;;4.20;;
20468;SDS011;10393;52.460;13.322;2023-05-07T02:11:54;5.80;;;4.33;;
20468;SDS011;10393;52.460;13.322;2023-05-07T02:13:37;9.07;;;4.53;;
20468;SDS011;10393;52.460;13.322;2023-05-07T02:15:18;7.33;;;4.70;;
20468;SDS011;10393;52.460;13.322;2023-05-07T02:17:02;5.93;;;4.07;;
20468;SDS011;10393;52.460;13.322;2023-05-07T02:18:46;6.17;;;3.67;;
20468;SDS011;10393;52.460;13.322;2023-05-07T02:20:29;6.07;;;4.50;;
20468;SDS011;10393;52.460;13.322;2023-05-07T02:22:13;5.83;;;3.43;;
20468;SDS011;10393;52.460;13.322;2023-05-07T02:23:54;4.73;;;3.03;;
20468;SDS011;10393;52.460;13.322;2023-05-07T02:25:35;4.80;;;3.57;;
20468;SDS011;10393;52.460;13.322;2023-05-07T02:27:17;5.30;;;3.77;;
20468;SDS011;10393;52.460;13.322;2023-05-07T02:28:59;7.17;;;3.83;;
20468;SDS011;10393;52.460;13.322;2023-05-07T02:30:41;4.93;;;2.67;;
20468;SDS011;10393;52.460;13.322;2023-05-07T02:32:25;7.53;;;4.53;;
20468;SDS011;10393;52.460;13.322;2023-05-07T02:34:06;4.10;;;2.57;;
20468;SDS011;10393;52.460;13.322;2023-05-07T02:35:53;7.80;;;4.30;;
20468;SDS011;10393;52.460;13.322;2023-05-07T02:37:34;5.03;;;2.90;;
20468;SDS011;10393;52.460;13.322;2023-05-07T02:39:16;4.03;;;3.63;;
20468;SDS011;10393;52.460;13.322;2023-05-07T02:40:57;10.07;;;4.63;;
20468;SDS011;10393;52.460;13.322;2023-05-07T02:42:38;6.57;;;4.43;;
20468;SDS011;10393;52.460;13.322;2023-05-07T02:44:19;5.57;;;4.30;;
20468;SDS011;10393;52.460;13.322;2023-05-07T02:46:04;7.23;;;4.20;;
20468;SDS011;10393;52.460;13.322;2023-05-07T02:47:48;5.03;;;3.50;;
20468;SDS011;10393;52.460;13.322;2023-05-07T02:49:30;5.83;;;4.40;;
20468;SDS011;10393;52.460;13.322;2023-05-07T02:51:12;4.97;;;3.60;;
20468;SDS011;10393;52.460;13.322;2023-05-07T02:52:55;6.20;;;4.07;;
20468;SDS011;10393;52.460;13.322;2023-05-07T02:54:36;7.57;;;4.40;;
20468;SDS011;10393;52.460;13.322;2023-05-07T02:56:17;13.40;;;5.40;;
20468;SDS011;10393;52.460;13.322;2023-05-07T02:57:59;7.03;;;5.13;;
20468;SDS011;10393;52.460;13.322;2023-05-07T02:59:41;8.73;;;5.20;;
20468;SDS011;10393;52.460;13.322;2023-05-07T03:01:29;13.27;;;5.23;;
20468;SDS011;10393;52.460;13.322;2023-05-07T03:03:19;8.70;;;5.23;;
20468;SDS011;10393;52.460;13.322;2023-05-07T03:05:01;7.27;;;3.97;;
20468;SDS011;10393;52.460;13.322;2023-05-07T03:06:42;9.17;;;4.73;;
20468;SDS011;10393;52.460;13.322;2023-05-07T03:08:25;15.00;;;6.40;;
20468;SDS011;10393;52.460;13.322;2023-05-07T03:10:14;7.87;;;4.77;;
20468;SDS011;10393;52.460;13.322;2023-05-07T03:11:56;11.80;;;6.63;;
20468;SDS011;10393;52.460;13.322;2023-05-07T03:13:37;5.97;;;4.73;;
20468;SDS011;10393;52.460;13.322;2023-05-07T03:15:18;10.60;;;5.53;;
20468;SDS011;10393;52.460;13.322;2023-05-07T03:17:00;8.13;;;5.13;;
20468;SDS011;10393;52.460;13.322;2023-05-07T03:18:41;11.47;;;5.00;;
20468;SDS011;10393;52.460;13.322;2023-05-07T03:20:23;6.57;;;5.10;;
20468;SDS011;10393;52.460;13.322;2023-05-07T03:22:07;6.23;;;4.17;;
20468;SDS011;10393;52.460;13.322;2023-05-07T03:23:49;6.40;;;4.10;;
20468;SDS011;10393;52.460;13.322;2023-05-07T03:25:30;7.80;;;4.53;;
20468;SDS011;10393;52.460;13.322;2023-05-07T03:27:11;9.67;;;5.53;;
20468;SDS011;10393;52.460;13.322;2023-05-07T03:28:53;6.63;;;3.60;;
20468;SDS011;10393;52.460;13.322;2023-05-07T03:30:37;6.43;;;4.77;;
20468;SDS011;10393;52.460;13.322;2023-05-07T03:32:18;3.20;;;2.90;;
20468;SDS011;10393;52.460;13.322;2023-05-07T03:34:05;5.23;;;3.53;;
20468;SDS011;10393;52.460;13.322;2023-05-07T03:36:21;4.73;;;2.23;;
20468;SDS011;10393;52.460;13.322;2023-05-07T03:38:25;5.63;;;3.60;;
20468;SDS011;10393;52.460;13.322;2023-05-07T03:40:07;5.10;;;2.40;;
20468;SDS011;10393;52.460;13.322;2023-05-07T03:42:08;3.27;;;2.23;;
20468;SDS011;10393;52.460;13.322;2023-05-07T03:43:51;3.33;;;2.53;;
20468;SDS011;10393;52.460;13.322;2023-05-07T03:45:32;7.27;;;4.50;;
20468;SDS011;10393;52.460;13.322;2023-05-07T03:47:24;4.43;;;4.00;;
20468;SDS011;10393;52.460;13.322;2023-05-07T03:49:08;5.93;;;3.53;;
20468;SDS011;10393;52.460;13.322;2023-05-07T03:50:55;5.80;;;3.63;;
20468;SDS011;10393;52.460;13.322;2023-05-07T03:52:36;7.10;;;3.70;;
20468;SDS011;10393;52.460;13.322;2023-05-07T03:54:20;7.93;;;4.80;;
20468;SDS011;10393;52.460;13.322;2023-05-07T03:56:01;8.33;;;4.33;;
20468;SDS011;10393;52.460;13.322;2023-05-07T03:57:46;4.50;;;2.80;;
20468;SDS011;10393;52.460;13.322;2023-05-07T03:59:31;5.70;;;3.03;;
20468;SDS011;10393;52.460;13.322;2023-05-07T04:01:12;3.07;;;2.50;;
20468;SDS011;10393;52.460;13.322;2023-05-07T04:02:57;6.63;;;4.07;;
20468;SDS011;10393;52.460;13.322;2023-05-07T04:04:42;9.83;;;4.30;;
20468;SDS011;10393;52.460;13.322;2023-05-07T04:06:31;6.67;;;3.87;;
20468;SDS011;10393;52.460;13.322;2023-05-07T04:08:12;9.67;;;4.57;;
20468;SDS011;10393;52.460;13.322;2023-05-07T04:10:01;4.93;;;3.13;;
20468;SDS011;10393;52.460;13.322;2023-05-07T04:11:45;4.57;;;3.10;;
20468;SDS011;10393;52.460;13.322;2023-05-07T04:13:26;4.17;;;3.13;;
20468;SDS011;10393;52.460;13.322;2023-05-07T04:15:07;5.13;;;3.97;;
20468;SDS011;10393;52.460;13.322;2023-05-07T04:16:48;4.70;;;4.07;;
20468;SDS011;10393;52.460;13.322;2023-05-07T04:18:30;4.50;;;3.50;;
20468;SDS011;10393;52.460;13.322;2023-05-07T04:20:15;8.27;;;3.97;;
20468;SDS011;10393;52.460;13.322;2023-05-07T04:21:57;7.87;;;4.00;;
20468;SDS011;10393;52.460;13.322;2023-05-07T04:23:38;4.17;;;1.90;;
20468;SDS011;10393;52.460;13.322;2023-05-07T04:25:24;8.47;;;2.83;;
20468;SDS011;10393;52.460;13.322;2023-05-07T04:27:09;1.73;;;1.60;;
20468;SDS011;10393;52.460;13.322;2023-05-07T04:28:51;5.77;;;2.87;;
20468;SDS011;10393;52.460;13.322;2023-05-07T04:30:32;5.83;;;3.40;;
20468;SDS011;10393;52.460;13.322;2023-05-07T04:32:13;5.57;;;3.20;;
20468;SDS011;10393;52.460;13.322;2023-05-07T04:33:55;3.90;;;2.17;;
20468;SDS011;10393;52.460;13.322;2023-05-07T04:35:36;4.53;;;3.20;;
20468;SDS011;10393;52.460;13.322;2023-05-07T04:37:19;4.63;;;3.03;;
20468;SDS011;10393;52.460;13.322;2023-05-07T04:39:00;7.75;;;4.30;;
20468;SDS011;10393;52.460;13.322;2023-05-07T04:40:43;3.80;;;2.27;;
20468;SDS011;10393;52.460;13.322;2023-05-07T04:42:28;4.17;;;3.03;;
20468;SDS011;10393;52.460;13.322;2023-05-07T04:44:13;5.50;;;2.93;;
20468;SDS011;10393;52.460;13.322;2023-05-07T04:45:54;6.83;;;3.57;;
20468;SDS011;10393;52.460;13.322;2023-05-07T04:47:38;5.40;;;4.13;;
20468;SDS011;10393;52.460;13.322;2023-05-07T04:49:20;4.80;;;3.37;;
20468;SDS011;10393;52.460;13.322;2023-05-07T04:51:10;3.23;;;2.87;;
20468;SDS011;10393;52.460;13.322;2023-05-07T04:52:51;4.03;;;2.93;;
20468;SDS011;10393;52.460;13.322;2023-05-07T04:54:33;4.47;;;3.37;;
20468;SDS011;10393;52.460;13.322;2023-05-07T04:56:14;2.40;;;1.40;;
20468;SDS011;10393;52.460;13.322;2023-05-07T04:57:57;8.70;;;3.60;;
20468;SDS011;10393;52.460;13.322;2023-05-07T04:59:40;5.10;;;3.60;;
20468;SDS011;10393;52.460;13.322;2023-05-07T05:01:25;4.40;;;2.97;;
20468;SDS011;10393;52.460;13.322;2023-05-07T05:03:07;3.87;;;2.90;;
20468;SDS011;10393;52.460;13.322;2023-05-07T05:04:48;5.30;;;3.13;;
20468;SDS011;10393;52.460;13.322;2023-05-07T05:06:32;4.90;;;3.17;;
20468;SDS011;10393;52.460;13.322;2023-05-07T05:08:18;7.03;;;3.27;;
20468;SDS011;10393;52.460;13.322;2023-05-07T05:09:59;2.07;;;1.47;;
20468;SDS011;10393;52.460;13.322;2023-05-07T05:11:41;5.25;;;3.10;;
20468;SDS011;10393;52.460;13.322;2023-05-07T05:13:22;4.95;;;3.05;;
20468;SDS011;10393;52.460;13.322;2023-05-07T05:15:04;4.73;;;3.67;;
20468;SDS011;10393;52.460;13.322;2023-05-07T05:16:48;3.80;;;2.60;;
20468;SDS011;10393;52.460;13.322;2023-05-07T05:18:29;5.38;;;2.63;;
20468;SDS011;10393;52.460;13.322;2023-05-07T05:20:10;6.20;;;2.90;;
20468;SDS011;10393;52.460;13.322;2023-05-07T05:21:54;5.40;;;3.13;;
20468;SDS011;10393;52.460;13.322;2023-05-07T05:23:35;4.53;;;3.07;;
20468;SDS011;10393;52.460;13.322;2023-05-07T05:25:16;7.85;;;3.35;;
20468;SDS011;10393;52.460;13.322;2023-05-07T05:27:03;4.10;;;2.55;;
20468;SDS011;10393;52.460;13.322;2023-05-07T05:28:49;3.47;;;2.60;;
20468;SDS011;10393;52.460;13.322;2023-05-07T05:30:37;5.50;;;2.42;;
20468;SDS011;10393;52.460;13.322;2023-05-07T05:32:28;6.55;;;2.25;;
20468;SDS011;10393;52.460;13.322;2023-05-07T05:34:10;4.40;;;2.80;;
20468;SDS011;10393;52.460;13.322;2023-05-07T05:36:02;2.40;;;2.20;;
20468;SDS011;10393;52.460;13.322;2023-05-07T05:37:44;4.20;;;2.57;;
20468;SDS011;10393;52.460;13.322;2023-05-07T05:39:28;4.73;;;3.27;;
20468;SDS011;10393;52.460;13.322;2023-05-07T05:41:15;4.63;;;2.53;;
20468;SDS011;10393;52.460;13.322;2023-05-07T05:42:56;2.30;;;1.53;;
20468;SDS011;10393;52.460;13.322;2023-05-07T05:44:41;6.23;;;2.80;;
20468;SDS011;10393;52.460;13.322;2023-05-07T05:46:32;4.22;;;2.60;;
20468;SDS011;10393;52.460;13.322;2023-05-07T05:48:24;4.72;;;2.58;;
20468;SDS011;10393;52.460;13.322;2023-05-07T05:50:25;4.25;;;2.38;;
20468;SDS011;10393;52.460;13.322;2023-05-07T05:52:07;4.20;;;2.30;;
20468;SDS011;10393;52.460;13.322;2023-05-07T05:53:50;2.40;;;2.20;;
20468;SDS011;10393;52.460;13.322;2023-05-07T05:55:32;2.88;;;2.55;;
20468;SDS011;10393;52.460;13.322;2023-05-07T05:57:13;3.97;;;2.40;;
20468;SDS011;10393;52.460;13.322;2023-05-07T05:58:54;9.52;;;3.08;;
20468;SDS011;10393;52.460;13.322;2023-05-07T06:00:38;2.25;;;1.70;;
20468;SDS011;10393;52.460;13.322;2023-05-07T06:02:22;4.60;;;2.58;;
20468;SDS011;10393;52.460;13.322;2023-05-07T06:04:03;3.80;;;1.38;;
20468;SDS011;10393;52.460;13.322;2023-05-07T06:05:45;1.50;;;1.33;;
20468;SDS011;10393;52.460;13.322;2023-05-07T06:07:27;3.15;;;1.83;;
20468;SDS011;10393;52.460;13.322;2023-05-07T06:09:09;1.30;;;1.10;;
20468;SDS011;10393;52.460;13.322;2023-05-07T06:10:55;4.20;;;1.88;;
20468;SDS011;10393;52.460;13.322;2023-05-07T06:12:37;5.68;;;3.25;;
20468;SDS011;10393;52.460;13.322;2023-05-07T06:14:18;4.65;;;2.45;;
20468;SDS011;10393;52.460;13.322;2023-05-07T06:16:00;2.90;;;2.35;;
20468;SDS011;10393;52.460;13.322;2023-05-07T06:17:41;1.90;;;1.70;;
20468;SDS011;10393;52.460;13.322;2023-05-07T06:19:24;2.92;;;2.00;;
20468;SDS011;10393;52.460;13.322;2023-05-07T06:21:17;1.77;;;1.65;;
20468;SDS011;10393;52.460;13.322;2023-05-07T06:22:58;0.90;;;0.88;;
20468;SDS011;10393;52.460;13.322;2023-05-07T06:24:39;3.13;;;1.83;;
20468;SDS011;10393;52.460;13.322;2023-05-07T06:26:22;13.00;;;3.60;;
20468;SDS011;10393;52.460;13.322;2023-05-07T06:28:03;3.83;;;2.08;;
20468;SDS011;10393;52.460;13.322;2023-05-07T06:29:47;5.53;;;2.40;;
20468;SDS011;10393;52.460;13.322;2023-05-07T06:31:31;1.25;;;0.80;;
20468;SDS011;10393;52.460;13.322;2023-05-07T06:33:20;2.28;;;1.55;;
20468;SDS011;10393;52.460;13.322;2023-05-07T06:35:07;2.22;;;2.03;;
20468;SDS011;10393;52.460;13.322;2023-05-07T06:36:51;2.15;;;1.83;;
20468;SDS011;10393;52.460;13.322;2023-05-07T06:38:44;3.15;;;2.88;;
20468;SDS011;10393;52.460;13.322;2023-05-07T06:40:26;2.88;;;2.25;;
20468;SDS011;10393;52.460;13.322;2023-05-07T06:42:07;3.88;;;2.40;;
20468;SDS011;10393;52.460;13.322;2023-05-07T06:43:54;5.00;;;2.33;;
20468;SDS011;10393;52.460;13.322;2023-05-07T06:45:46;3.15;;;2.35;;
20468;SDS011;10393;52.460;13.322;2023-05-07T06:47:28;1.42;;;1.20;;
20468;SDS011;10393;52.460;13.322;2023-05-07T06:49:09;7.25;;;2.92;;
20468;SDS011;10393;52.460;13.322;2023-05-07T06:50:50;2.17;;;1.98;;
20468;SDS011;10393;52.460;13.322;2023-05-07T06:52:32;1.30;;;0.93;;
20468;SDS011;10393;52.460;13.322;2023-05-07T06:54:14;4.07;;;2.08;;
20468;SDS011;10393;52.460;13.322;2023-05-07T06:55:58;6.28;;;2.65;;
20468;SDS011;10393;52.460;13.322;2023-05-07T06:57:39;2.38;;;1.73;;
20468;SDS011;10393;52.460;13.322;2023-05-07T06:59:21;4.57;;;2.83;;
20468;SDS011;10393;52.460;13.322;2023-05-07T07:01:02;6.13;;;3.28;;
20468;SDS011;10393;52.460;13.322;2023-05-07T07:02:44;1.88;;;1.35;;
20468;SDS011;10393;52.460;13.322;2023-05-07T07:04:28;3.75;;;1.73;;
20468;SDS011;10393;52.460;13.322;2023-05-07T07:06:17;3.15;;;1.60;;
20468;SDS011;10393;52.460;13.322;2023-05-07T07:07:59;2.78;;;2.53;;
20468;SDS011;10393;52.460;13.322;2023-05-07T07:09:42;1.58;;;1.25;;
20468;SDS011;10393;52.460;13.322;2023-05-07T07:11:26;4.25;;;2.08;;
20468;SDS011;10393;52.460;13.322;2023-05-07T07:13:08;3.50;;;1.92;;
20468;SDS011;10393;52.460;13.322;2023-05-07T07:14:49;1.75;;;1.27;;
20468;SDS011;10393;52.460;13.322;2023-05-07T07:16:31;6.47;;;1.70;;
20468;SDS011;10393;52.460;13.322;2023-05-07T07:18:12;1.75;;;1.20;;
20468;SDS011;10393;52.460;13.322;2023-05-07T07:19:57;1.98;;;1.60;;
20468;SDS011;10393;52.460;13.322;2023-05-07T07:21:38;2.42;;;1.83;;
20468;SDS011;10393;52.460;13.322;2023-05-07T07:23:20;6.53;;;1.98;;
20468;SDS011;10393;52.460;13.322;2023-05-07T07:25:01;2.10;;;1.42;;
20468;SDS011;10393;52.460;13.322;2023-05-07T07:26:43;4.22;;;1.70;;
20468;SDS011;10393;52.460;13.322;2023-05-07T07:28:24;1.40;;;1.30;;
20468;SDS011;10393;52.460;13.322;2023-05-07T07:30:06;1.50;;;1.33;;
20468;SDS011;10393;52.460;13.322;2023-05-07T07:31:50;9.82;;;1.52;;
20468;SDS011;10393;52.460;13.322;2023-05-07T07:33:33;1.90;;;1.17;;
20468;SDS011;10393;52.460;13.322;2023-05-07T07:35:16;2.20;;;2.00;;
20468;SDS011;10393;52.460;13.322;2023-05-07T07:37:04;3.88;;;2.38;;
20468;SDS011;10393;52.460;13.322;2023-05-07T07:38:50;4.10;;;2.35;;
20468;SDS011;10393;52.460;13.322;2023-05-07T07:40:33;6.05;;;2.55;;
20468;SDS011;10393;52.460;13.322;2023-05-07T07:42:15;3.97;;;2.30;;
20468;SDS011;10393;52.460;13.322;2023-05-07T07:43:56;3.92;;;2.42;;
20468;SDS011;10393;52.460;13.322;2023-05-07T07:45:38;7.20;;;3.42;;
20468;SDS011;10393;52.460;13.322;2023-05-07T07:47:19;4.80;;;3.38;;
20468;SDS011;10393;52.460;13.322;2023-05-07T07:49:02;2.28;;;2.08;;
20468;SDS011;10393;52.460;13.322;2023-05-07T07:50:44;2.97;;;2.60;;
20468;SDS011;10393;52.460;13.322;2023-05-07T07:52:28;3.03;;;2.75;;
20468;SDS011;10393;52.460;13.322;2023-05-07T07:54:09;2.30;;;2.10;;
20468;SDS011;10393;52.460;13.322;2023-05-07T07:55:51;2.60;;;2.40;;
20468;SDS011;10393;52.460;13.322;2023-05-07T07:57:35;2.97;;;1.90;;
20468;SDS011;10393;52.460;13.322;2023-05-07T07:59:17;1.77;;;1.52;;
20468;SDS011;10393;52.460;13.322;2023-05-07T08:01:00;1.90;;;1.75;;
20468;SDS011;10393;52.460;13.322;2023-05-07T08:02:44;1.73;;;1.42;;
20468;SDS011;10393;52.460;13.322;2023-05-07T08:04:33;1.45;;;1.35;;
20468;SDS011;10393;52.460;13.322;2023-05-07T08:06:18;2.28;;;2.00;;
20468;SDS011;10393;52.460;13.322;2023-05-07T08:08:00;1.98;;;1.73;;
20468;SDS011;10393;52.460;13.322;2023-05-07T08:09:45;2.55;;;2.35;;
20468;SDS011;10393;52.460;13.322;2023-05-07T08:11:27;1.85;;;1.75;;
20468;SDS011;10393;52.460;13.322;2023-05-07T08:13:09;2.20;;;2.10;;
20468;SDS011;10393;52.460;13.322;2023-05-07T08:14:53;4.03;;;1.67;;
20468;SDS011;10393;52.460;13.322;2023-05-07T08:16:34;2.72;;;1.67;;
20468;SDS011;10393;52.460;13.322;2023-05-07T08:18:16;2.47;;;1.50;;
20468;SDS011;10393;52.460;13.322;2023-05-07T08:19:59;1.85;;;1.75;;
20468;SDS011;10393;52.460;13.322;2023-05-07T08:21:40;1.23;;;0.60;;
20468;SDS011;10393;52.460;13.322;2023-05-07T08:23:23;1.85;;;1.75;;
20468;SDS011;10393;52.460;13.322;2023-05-07T08:25:04;3.38;;;2.42;;
20468;SDS011;10393;52.460;13.322;2023-05-07T08:26:47;2.50;;;2.30;;
20468;SDS011;10393;52.460;13.322;2023-05-07T08:28:28;1.98;;;1.70;;
20468;SDS011;10393;52.460;13.322;2023-05-07T08:30:10;2.75;;;1.98;;
20468;SDS011;10393;52.460;13.322;2023-05-07T08:31:51;2.15;;;1.50;;
20468;SDS011;10393;52.460;13.322;2023-05-07T08:33:33;1.02;;;0.93;;
20468;SDS011;10393;52.460;13.322;2023-05-07T08:35:14;1.15;;;1.05;;
20468;SDS011;10393;52.460;13.322;2023-05-07T08:36:55;1.73;;;0.90;;
20468;SDS011;10393;52.460;13.322;2023-05-07T08:38:38;0.82;;;0.82;;
20468;SDS011;10393;52.460;13.322;2023-05-07T08:40:24;0.95;;;0.73;;
20468;SDS011;10393;52.460;13.322;2023-05-07T08:42:06;2.83;;;1.50;;
20468;SDS011;10393;52.460;13.322;2023-05-07T08:43:49;1.70;;;1.20;;
20468;SDS011;10393;52.460;13.322;2023-05-07T08:45:32;1.20;;;0.65;;
20468;SDS011;10393;52.460;13.322;2023-05-07T08:47:14;2.42;;;1.20;;
20468;SDS011;10393;52.460;13.322;2023-05-07T08:48:55;1.38;;;1.27;;
20468;SDS011;10393;52.460;13.322;2023-05-07T08:50:37;1.60;;;1.48;;
20468;SDS011;10393;52.460;13.322;2023-05-07T08:52:19;1.60;;;1.40;;
20468;SDS011;10393;52.460;13.322;2023-05-07T08:54:01;1.77;;;1.45;;
20468;SDS011;10393;52.460;13.322;2023-05-07T08:55:46;3.47;;;1.33;;
20468;SDS011;10393;52.460;13.322;2023-05-07T08:57:28;1.48;;;1.17;;
20468;SDS011;10393;52.460;13.322;2023-05-07T08:59:10;1.08;;;1.02;;
20468;SDS011;10393;52.460;13.322;2023-05-07T09:00:51;2.20;;;1.30;;
20468;SDS011;10393;52.460;13.322;2023-05-07T09:02:37;2.92;;;0.88;;
20468;SDS011;10393;52.460;13.322;2023-05-07T09:04:19;0.70;;;0.70;;
20468;SDS011;10393;52.460;13.322;2023-05-07T09:06:01;0.95;;;0.88;;
20468;SDS011;10393;52.460;13.322;2023-05-07T09:07:44;1.13;;;1.00;;
20468;SDS011;10393;52.460;13.322;2023-05-07T09:09:27;2.90;;;0.90;;
20468;SDS011;10393;52.460;13.322;2023-05-07T09:11:09;1.77;;;0.88;;
20468;SDS011;10393;52.460;13.322;2023-05-07T09:12:50;2.80;;;1.08;;
20468;SDS011;10393;52.460;13.322;2023-05-07T09:14:31;0.80;;;0.80;;
20468;SDS011;10393;52.460;13.322;2023-05-07T09:16:14;2.17;;;1.17;;
20468;SDS011;10393;52.460;13.322;2023-05-07T09:17:59;1.88;;;0.57;;
20468;SDS011;10393;52.460;13.322;2023-05-07T09:19:45;2.92;;;0.88;;
20468;SDS011;10393;52.460;13.322;2023-05-07T09:21:28;1.33;;;1.15;;
20468;SDS011;10393;52.460;13.322;2023-05-07T09:23:13;2.40;;;1.00;;
20468;SDS011;10393;52.460;13.322;2023-05-07T09:24:57;1.52;;;0.93;;
20468;SDS011;10393;52.460;13.322;2023-05-07T09:26:40;1.77;;;1.00;;
20468;SDS011;10393;52.460;13.322;2023-05-07T09:28:22;1.17;;;0.90;;
20468;SDS011;10393;52.460;13.322;2023-05-07T09:30:04;2.88;;;1.50;;
20468;SDS011;10393;52.460;13.322;2023-05-07T09:31:47;2.15;;;0.90;;
20468;SDS011;10393;52.460;13.322;2023-05-07T09:33:30;1.30;;;1.00;;
20468;SDS011;10393;52.460;13.322;2023-05-07T09:35:15;0.80;;;0.80;;
20468;SDS011;10393;52.460;13.322;2023-05-07T09:37:10;1.17;;;0.80;;
20468;SDS011;10393;52.460;13.322;2023-05-07T09:38:53;4.10;;;1.05;;
20468;SDS011;10393;52.460;13.322;2023-05-07T09:40:36;2.13;;;0.93;;
20468;SDS011;10393;52.460;13.322;2023-05-07T09:42:25;1.02;;;0.50;;
20468;SDS011;10393;52.460;13.322;2023-05-07T09:44:09;0.60;;;0.57;;
20468;SDS011;10393;52.460;13.322;2023-05-07T09:45:57;0.55;;;0.55;;
20468;SDS011;10393;52.460;13.322;2023-05-07T09:47:40;0.82;;;0.82;;
20468;SDS011;10393;52.460;13.322;2023-05-07T09:49:29;1.83;;;0.73;;
20468;SDS011;10393;52.460;13.322;2023-05-07T09:52:59;0.95;;;0.55;;
20468;SDS011;10393;52.460;13.322;2023-05-07T09:54:41;1.10;;;0.68;;
20468;SDS011;10393;52.460;13.322;2023-05-07T09:56:25;1.02;;;0.90;;
20468;SDS011;10393;52.460;13.322;2023-05-07T09:58:07;1.42;;;0.85;;
20468;SDS011;10393;52.460;13.322;2023-05-07T09:59:49;2.85;;;0.80;;
20468;SDS011;10393;52.460;13.322;2023-05-07T10:01:33;0.90;;;0.80;;
20468;SDS011;10393;52.460;13.322;2023-05-07T10:03:16;1.35;;;1.10;;
20468;SDS011;10393;52.460;13.322;2023-05-07T10:05:08;0.82;;;0.77;;
20468;SDS011;10393;52.460;13.322;2023-05-07T10:06:49;1.13;;;0.80;;
20468;SDS011;10393;52.460;13.322;2023-05-07T10:08:31;0.98;;;0.90;;
20468;SDS011;10393;52.460;13.322;2023-05-07T10:10:14;2.55;;;0.70;;
20468;SDS011;10393;52.460;13.322;2023-05-07T10:11:58;1.10;;;1.00;;
20468;SDS011;10393;52.460;13.322;2023-05-07T10:13:40;1.80;;;0.90;;
20468;SDS011;10393;52.460;13.322;2023-05-07T10:15:23;0.82;;;0.80;;